sensor_id;sensor_type;location;lat;lon;timestamp;pressure;altitude;pressure_sealevel;temperature;humidity
36692;BME280;22678;52.052;4.242;2023-05-24T00:01:35;102595.00;;;12.53;61.93
36692;BME280;22678;52.052;4.242;2023-05-24T00:04:02;102576.41;;;12.44;62.18
36692;BME280;22678;52.052;4.242;2023-05-24T00:06:27;102578.97;;;12.38;61.89
36692;BME280;22678;52.052;4.242;2023-05-24T00:08:53;102578.94;;;12.36;62.31
36692;BME280;22678;52.052;4.242;2023-05-24T00:11:19;102562.16;;;12.30;62.27
36692;BME280;22678;52.052;4.242;2023-05-24T00:13:45;102575.34;;;12.28;62.68
36692;BME280;22678;52.052;4.242;2023-05-24T00:16:10;102577.06;;;12.26;62.71
36692;BME280;22678;52.052;4.242;2023-05-24T00:18:36;102561.97;;;12.16;62.88
36692;BME280;22678;52.052;4.242;2023-05-24T00:21:08;102574.31;;;12.18;62.97
36692;BME280;22678;52.052;4.242;2023-05-24T00:23:34;102573.44;;;12.16;63.11
36692;BME280;22678;52.052;4.242;2023-05-24T00:26:01;102570.75;;;12.13;63.25
36692;BME280;22678;52.052;4.242;2023-05-24T00:28:27;102577.72;;;12.09;63.32
36692;BME280;22678;52.052;4.242;2023-05-24T00:30:52;102566.25;;;12.04;63.42
36692;BME280;22678;52.052;4.242;2023-05-24T00:33:17;102563.53;;;12.01;63.63
36692;BME280;22678;52.052;4.242;2023-05-24T00:35:43;102582.94;;;12.03;63.64
36692;BME280;22678;52.052;4.242;2023-05-24T00:38:08;102572.31;;;11.97;63.73
36692;BME280;22678;52.052;4.242;2023-05-24T00:40:33;102583.75;;;11.99;63.95
36692;BME280;22678;52.052;4.242;2023-05-24T00:42:59;102565.13;;;11.90;63.92
36692;BME280;22678;52.052;4.242;2023-05-24T00:45:24;102570.31;;;11.84;64.18
36692;BME280;22678;52.052;4.242;2023-05-24T00:47:49;102570.31;;;11.82;64.10
36692;BME280;22678;52.052;4.242;2023-05-24T00:50:15;102561.41;;;11.75;64.19
36692;BME280;22678;52.052;4.242;2023-05-24T00:52:41;102578.19;;;11.81;64.41
36692;BME280;22678;52.052;4.242;2023-05-24T00:55:07;102563.97;;;11.71;64.59
36692;BME280;22678;52.052;4.242;2023-05-24T00:57:35;102557.75;;;11.66;64.61
36692;BME280;22678;52.052;4.242;2023-05-24T01:00:02;102552.44;;;11.64;64.80
36692;BME280;22678;52.052;4.242;2023-05-24T01:02:29;102554.19;;;11.62;64.79
36692;BME280;22678;52.052;4.242;2023-05-24T01:04:54;102562.06;;;11.61;64.79
36692;BME280;22678;52.052;4.242;2023-05-24T01:07:26;102567.31;;;11.59;65.06
36692;BME280;22678;52.052;4.242;2023-05-24T01:12:52;102572.50;;;11.53;65.30
36692;BME280;22678;52.052;4.242;2023-05-24T01:15:36;102569.69;;;11.44;65.31
36692;BME280;22678;52.052;4.242;2023-05-24T01:18:15;102587.28;;;11.45;65.51
36692;BME280;22678;52.052;4.242;2023-05-24T01:20:41;102573.97;;;11.35;65.49
36692;BME280;22678;52.052;4.242;2023-05-24T01:23:29;102570.31;;;11.27;65.61
36692;BME280;22678;52.052;4.242;2023-05-24T01:26:16;102553.50;;;11.17;65.69
36692;BME280;22678;52.052;4.242;2023-05-24T01:28:43;102582.66;;;11.30;65.90
36692;BME280;22678;52.052;4.242;2023-05-24T01:31:11;102584.34;;;11.26;65.93
36692;BME280;22678;52.052;4.242;2023-05-24T01:33:41;102575.50;;;11.21;66.10
36692;BME280;22678;52.052;4.242;2023-05-24T01:36:07;102572.84;;;11.19;66.16
36692;BME280;22678;52.052;4.242;2023-05-24T01:38:32;102564.81;;;11.12;66.21
36692;BME280;22678;52.052;4.242;2023-05-24T01:41:02;102578.03;;;11.15;66.22
36692;BME280;22678;52.052;4.242;2023-05-24T01:49:16;102568.19;;;11.04;66.53
36692;BME280;22678;52.052;4.242;2023-05-24T01:51:52;102557.56;;;10.98;66.62
36692;BME280;22678;52.052;4.242;2023-05-24T01:54:25;102554.00;;;10.96;66.63
36692;BME280;22678;52.052;4.242;2023-05-24T01:56:53;102554.75;;;10.89;66.75
36692;BME280;22678;52.052;4.242;2023-05-24T01:59:21;102565.31;;;10.92;66.67
36692;BME280;22678;52.052;4.242;2023-05-24T02:01:48;102559.06;;;10.84;66.76
36692;BME280;22678;52.052;4.242;2023-05-24T02:04:16;102559.91;;;10.83;66.83
36692;BME280;22678;52.052;4.242;2023-05-24T02:06:41;102554.47;;;10.74;66.99
36692;BME280;22678;52.052;4.242;2023-05-24T02:09:06;102549.25;;;10.75;67.06
36692;BME280;22678;52.052;4.242;2023-05-24T02:11:32;102546.59;;;10.74;67.17
36692;BME280;22678;52.052;4.242;2023-05-24T02:13:57;102557.09;;;10.72;67.27
36692;BME280;22678;52.052;4.242;2023-05-24T02:16:23;102557.00;;;10.67;67.43
36692;BME280;22678;52.052;4.242;2023-05-24T02:18:50;102558.75;;;10.68;67.43
36692;BME280;22678;52.052;4.242;2023-05-24T02:21:16;102553.50;;;10.68;67.75
36692;BME280;22678;52.052;4.242;2023-05-24T02:23:41;102546.28;;;10.58;67.69
36692;BME280;22678;52.052;4.242;2023-05-24T02:26:06;102558.75;;;10.68;67.78
36692;BME280;22678;52.052;4.242;2023-05-24T02:28:35;102540.19;;;10.59;68.03
36692;BME280;22678;52.052;4.242;2023-05-24T02:31:00;102556.00;;;10.62;67.77
36692;BME280;22678;52.052;4.242;2023-05-24T02:33:26;102548.00;;;10.56;68.24
36692;BME280;22678;52.052;4.242;2023-05-24T02:35:54;102554.25;;;10.63;68.25
36692;BME280;22678;52.052;4.242;2023-05-24T02:38:20;102551.59;;;10.61;68.32
36692;BME280;22678;52.052;4.242;2023-05-24T02:40:45;102546.28;;;10.58;68.46
36692;BME280;22678;52.052;4.242;2023-05-24T02:43:10;102500.94;;;10.27;68.50
36692;BME280;22678;52.052;4.242;2023-05-24T02:45:35;102550.59;;;10.53;68.78
36692;BME280;22678;52.052;4.242;2023-05-24T02:48:01;102556.63;;;10.49;68.90
36692;BME280;22678;52.052;4.242;2023-05-24T02:50:27;102553.19;;;10.51;69.02
36692;BME280;22678;52.052;4.242;2023-05-24T02:52:52;102546.06;;;10.46;69.21
36692;BME280;22678;52.052;4.242;2023-05-24T02:55:17;102542.53;;;10.44;69.31
36692;BME280;22678;52.052;4.242;2023-05-24T02:57:43;102549.75;;;10.54;69.54
36692;BME280;22678;52.052;4.242;2023-05-24T03:00:09;102542.66;;;10.51;69.62
36692;BME280;22678;52.052;4.242;2023-05-24T03:02:35;102539.16;;;10.52;69.73
36692;BME280;22678;52.052;4.242;2023-05-24T03:05:02;102536.50;;;10.51;69.96
36692;BME280;22678;52.052;4.242;2023-05-24T03:07:28;102538.28;;;10.52;70.32
36692;BME280;22678;52.052;4.242;2023-05-24T03:09:53;102533.97;;;10.54;70.31
36692;BME280;22678;52.052;4.242;2023-05-24T03:12:19;102530.44;;;10.55;70.69
36692;BME280;22678;52.052;4.242;2023-05-24T03:14:44;102514.59;;;10.52;70.77
36692;BME280;22678;52.052;4.242;2023-05-24T03:17:09;102525.13;;;10.52;70.56
36692;BME280;22678;52.052;4.242;2023-05-24T03:19:35;102538.41;;;10.58;70.89
36692;BME280;22678;52.052;4.242;2023-05-24T03:22:00;102533.97;;;10.54;70.96
36692;BME280;22678;52.052;4.242;2023-05-24T03:24:25;102528.69;;;10.54;71.22
36692;BME280;22678;52.052;4.242;2023-05-24T03:26:51;102526.84;;;10.50;71.24
36692;BME280;22678;52.052;4.242;2023-05-24T03:29:16;102518.03;;;10.48;71.39
36692;BME280;22678;52.052;4.242;2023-05-24T03:31:42;102519.88;;;10.52;71.75
36692;BME280;22678;52.052;4.242;2023-05-24T03:34:07;102508.41;;;10.48;71.78
36692;BME280;22678;52.052;4.242;2023-05-24T03:36:32;102524.31;;;10.55;71.95
36692;BME280;22678;52.052;4.242;2023-05-24T03:38:57;102522.53;;;10.54;72.06
36692;BME280;22678;52.052;4.242;2023-05-24T03:41:23;102533.19;;;10.61;72.20
36692;BME280;22678;52.052;4.242;2023-05-24T03:43:49;102532.34;;;10.62;72.39
36692;BME280;22678;52.052;4.242;2023-05-24T03:46:14;102535.97;;;10.67;72.43
36692;BME280;22678;52.052;4.242;2023-05-24T03:48:40;102544.75;;;10.69;72.82
36692;BME280;22678;52.052;4.242;2023-05-24T03:51:05;102523.66;;;10.66;72.97
36692;BME280;22678;52.052;4.242;2023-05-24T03:53:30;102528.97;;;10.69;73.34
36692;BME280;22678;52.052;4.242;2023-05-24T03:55:56;102530.75;;;10.71;73.48
36692;BME280;22678;52.052;4.242;2023-05-24T03:58:21;102516.63;;;10.67;73.51
36692;BME280;22678;52.052;4.242;2023-05-24T04:00:46;102531.69;;;10.76;73.73
36692;BME280;22678;52.052;4.242;2023-05-24T04:03:12;102532.56;;;10.75;73.84
36692;BME280;22678;52.052;4.242;2023-05-24T04:05:37;102522.03;;;10.75;74.15
36692;BME280;22678;52.052;4.242;2023-05-24T04:08:02;102535.41;;;10.85;74.20
36692;BME280;22678;52.052;4.242;2023-05-24T04:10:28;102523.91;;;10.82;74.38
36692;BME280;22678;52.052;4.242;2023-05-24T04:12:53;102535.47;;;10.90;74.49
36692;BME280;22678;52.052;4.242;2023-05-24T04:15:21;102545.25;;;10.97;74.81
36692;BME280;22678;52.052;4.242;2023-05-24T04:17:47;102528.47;;;10.92;74.83
36692;BME280;22678;52.052;4.242;2023-05-24T04:20:12;102539.13;;;10.98;74.95
36692;BME280;22678;52.052;4.242;2023-05-24T04:22:38;102552.44;;;11.08;75.12
36692;BME280;22678;52.052;4.242;2023-05-24T04:25:04;102543.63;;;11.05;75.28
36692;BME280;22678;52.052;4.242;2023-05-24T04:27:30;102556.03;;;11.13;75.36
36692;BME280;22678;52.052;4.242;2023-05-24T04:29:56;102545.41;;;11.07;75.36
36692;BME280;22678;52.052;4.242;2023-05-24T04:32:21;102550.00;;;11.18;75.49
36692;BME280;22678;52.052;4.242;2023-05-24T04:34:48;102550.00;;;11.18;75.69
36692;BME280;22678;52.052;4.242;2023-05-24T04:37:14;102531.44;;;11.11;75.97
36692;BME280;22678;52.052;4.242;2023-05-24T04:39:41;102547.41;;;11.23;75.93
36692;BME280;22678;52.052;4.242;2023-05-24T04:42:07;102557.22;;;11.32;76.10
36692;BME280;22678;52.052;4.242;2023-05-24T04:44:32;102547.50;;;11.28;76.01
36692;BME280;22678;52.052;4.242;2023-05-24T04:46:57;102551.09;;;11.31;76.18
36692;BME280;22678;52.052;4.242;2023-05-24T04:49:23;102549.34;;;11.33;76.24
36692;BME280;22678;52.052;4.242;2023-05-24T04:51:49;102561.81;;;11.44;76.18
36692;BME280;22678;52.052;4.242;2023-05-24T04:54:14;102561.94;;;11.50;76.79
36692;BME280;22678;52.052;4.242;2023-05-24T04:56:42;102555.72;;;11.48;76.43
36692;BME280;22678;52.052;4.242;2023-05-24T04:59:07;102558.59;;;11.63;76.92
36692;BME280;22678;52.052;4.242;2023-05-24T05:01:33;102535.78;;;11.65;76.70
36692;BME280;22678;52.052;4.242;2023-05-24T05:03:59;102536.78;;;11.72;76.73
36692;BME280;22678;52.052;4.242;2023-05-24T05:06:24;102534.25;;;11.80;76.85
36692;BME280;22678;52.052;4.242;2023-05-24T05:08:50;102545.91;;;11.96;76.41
36692;BME280;22678;52.052;4.242;2023-05-24T05:11:16;102536.25;;;11.96;76.66
36692;BME280;22678;52.052;4.242;2023-05-24T05:13:42;102529.25;;;12.01;76.70
36692;BME280;22678;52.052;4.242;2023-05-24T05:16:08;102516.97;;;12.00;76.62
36692;BME280;22678;52.052;4.242;2023-05-24T05:18:33;102532.00;;;12.07;76.56
36692;BME280;22678;52.052;4.242;2023-05-24T05:20:58;102543.44;;;12.09;76.29
36692;BME280;22678;52.052;4.242;2023-05-24T05:23:24;102555.78;;;12.11;76.25
36692;BME280;22678;52.052;4.242;2023-05-24T05:25:49;102537.22;;;12.03;76.34
36692;BME280;22678;52.052;4.242;2023-05-24T05:28:15;102542.53;;;12.06;76.70
36692;BME280;22678;52.052;4.242;2023-05-24T05:30:41;102551.34;;;12.09;76.38
36692;BME280;22678;52.052;4.242;2023-05-24T05:33:06;102551.34;;;12.08;76.58
36692;BME280;22678;52.052;4.242;2023-05-24T05:35:31;102561.19;;;12.23;76.48
36692;BME280;22678;52.052;4.242;2023-05-24T05:37:59;102554.31;;;12.34;76.58
36692;BME280;22678;52.052;4.242;2023-05-24T05:40:25;102558.88;;;12.51;76.70
36692;BME280;22678;52.052;4.242;2023-05-24T05:42:50;102547.63;;;12.67;76.35
36692;BME280;22678;52.052;4.242;2023-05-24T05:45:16;102567.13;;;12.82;75.85
36692;BME280;22678;52.052;4.242;2023-05-24T05:47:41;102570.72;;;12.87;75.91
36692;BME280;22678;52.052;4.242;2023-05-24T05:50:07;102559.41;;;13.00;75.68
36692;BME280;22678;52.052;4.242;2023-05-24T05:52:33;102562.13;;;13.09;75.51
36692;BME280;22678;52.052;4.242;2023-05-24T05:54:58;102555.06;;;13.08;75.30
36692;BME280;22678;52.052;4.242;2023-05-24T05:57:25;102563.94;;;13.17;75.12
36692;BME280;22678;52.052;4.242;2023-05-24T05:59:50;102558.66;;;13.18;75.08
36692;BME280;22678;52.052;4.242;2023-05-24T06:02:16;102571.06;;;13.27;74.49
36692;BME280;22678;52.052;4.242;2023-05-24T06:04:43;102557.84;;;13.27;74.25
36692;BME280;22678;52.052;4.242;2023-05-24T06:07:09;102555.25;;;13.30;74.32
36692;BME280;22678;52.052;4.242;2023-05-24T06:09:34;102555.38;;;13.45;73.60
36692;BME280;22678;52.052;4.242;2023-05-24T06:11:59;102559.84;;;13.54;73.91
36692;BME280;22678;52.052;4.242;2023-05-24T06:14:25;102559.91;;;13.60;73.09
36692;BME280;22678;52.052;4.242;2023-05-24T06:16:51;102574.91;;;13.69;73.10
36692;BME280;22678;52.052;4.242;2023-05-24T06:19:18;102574.09;;;13.76;73.15
36692;BME280;22678;52.052;4.242;2023-05-24T06:21:47;102570.63;;;13.90;72.96
36692;BME280;22678;52.052;4.242;2023-05-24T06:24:16;102573.47;;;14.24;72.68
36692;BME280;22678;52.052;4.242;2023-05-24T06:26:50;102568.28;;;14.58;71.88
36692;BME280;22678;52.052;4.242;2023-05-24T06:29:15;102548.84;;;14.52;70.73
36692;BME280;22678;52.052;4.242;2023-05-24T06:31:43;102561.22;;;14.50;70.04
36692;BME280;22678;52.052;4.242;2023-05-24T06:34:11;102565.59;;;14.42;69.70
36692;BME280;22678;52.052;4.242;2023-05-24T06:36:36;102565.56;;;14.33;69.58
36692;BME280;22678;52.052;4.242;2023-05-24T06:39:05;102560.25;;;14.27;69.46
36692;BME280;22678;52.052;4.242;2023-05-24T06:41:30;102557.56;;;14.20;69.37
36692;BME280;22678;52.052;4.242;2023-05-24T06:43:56;102560.19;;;14.17;69.53
36692;BME280;22678;52.052;4.242;2023-05-24T06:46:21;102561.03;;;14.09;69.36
36692;BME280;22678;52.052;4.242;2023-05-24T06:48:46;102566.34;;;14.10;69.58
36692;BME280;22678;52.052;4.242;2023-05-24T06:51:11;102559.22;;;14.00;69.78
36692;BME280;22678;52.052;4.242;2023-05-24T06:53:37;102566.28;;;14.01;69.92
36692;BME280;22678;52.052;4.242;2023-05-24T06:56:02;102557.50;;;14.02;69.83
36692;BME280;22678;52.052;4.242;2023-05-24T06:58:27;102574.31;;;14.13;69.61
36692;BME280;22678;52.052;4.242;2023-05-24T07:00:53;102576.06;;;14.17;69.46
36692;BME280;22678;52.052;4.242;2023-05-24T07:03:18;102579.63;;;14.24;69.45
36692;BME280;22678;52.052;4.242;2023-05-24T07:05:43;102577.88;;;14.29;69.31
36692;BME280;22678;52.052;4.242;2023-05-24T07:08:09;102568.19;;;14.27;69.16
36692;BME280;22678;52.052;4.242;2023-05-24T07:10:34;102566.44;;;14.38;69.14
36692;BME280;22678;52.052;4.242;2023-05-24T07:13:00;102577.97;;;14.51;68.75
36692;BME280;22678;52.052;4.242;2023-05-24T07:15:26;102577.13;;;14.60;68.58
36692;BME280;22678;52.052;4.242;2023-05-24T07:17:51;102572.78;;;14.66;68.57
36692;BME280;22678;52.052;4.242;2023-05-24T07:20:16;102543.59;;;14.63;68.31
36692;BME280;22678;52.052;4.242;2023-05-24T07:22:42;102576.34;;;14.93;67.69
36692;BME280;22678;52.052;4.242;2023-05-24T07:25:08;102579.03;;;15.19;67.49
36692;BME280;22678;52.052;4.242;2023-05-24T07:27:34;102592.25;;;15.32;65.79
36692;BME280;22678;52.052;4.242;2023-05-24T07:29:59;102591.38;;;15.40;65.78
36692;BME280;22678;52.052;4.242;2023-05-24T07:32:25;102582.50;;;15.65;65.49
36692;BME280;22678;52.052;4.242;2023-05-24T07:34:50;102582.50;;;15.88;64.51
36692;BME280;22678;52.052;4.242;2023-05-24T07:37:16;102580.69;;;16.01;64.06
36692;BME280;22678;52.052;4.242;2023-05-24T07:39:41;102597.47;;;16.17;63.65
36692;BME280;22678;52.052;4.242;2023-05-24T07:42:07;102577.03;;;16.26;62.39
36692;BME280;22678;52.052;4.242;2023-05-24T07:44:33;102577.94;;;16.32;62.10
36692;BME280;22678;52.052;4.242;2023-05-24T07:46:58;102592.09;;;16.26;61.40
36692;BME280;22678;52.052;4.242;2023-05-24T07:49:25;102582.41;;;16.14;60.98
36692;BME280;22678;52.052;4.242;2023-05-24T07:51:51;102585.97;;;16.05;60.75
36692;BME280;22678;52.052;4.242;2023-05-24T07:54:16;102587.75;;;15.99;60.68
36692;BME280;22678;52.052;4.242;2023-05-24T07:56:42;102578.97;;;15.86;60.93
36692;BME280;22678;52.052;4.242;2023-05-24T07:59:07;102601.94;;;16.01;60.58
36692;BME280;22678;52.052;4.242;2023-05-24T08:01:33;102593.00;;;16.20;60.73
36692;BME280;22678;52.052;4.242;2023-05-24T08:04:00;102600.88;;;16.45;60.61
36692;BME280;22678;52.052;4.242;2023-05-24T08:06:27;102592.88;;;16.51;60.28
36692;BME280;22678;52.052;4.242;2023-05-24T08:08:53;102599.88;;;16.63;60.10
36692;BME280;22678;52.052;4.242;2023-05-24T08:11:18;102594.50;;;16.74;60.64
36692;BME280;22678;52.052;4.242;2023-05-24T08:13:44;102603.28;;;16.91;60.20
36692;BME280;22678;52.052;4.242;2023-05-24T08:16:09;102599.66;;;17.08;59.71
36692;BME280;22678;52.052;4.242;2023-05-24T08:18:35;102577.34;;;17.27;58.45
36692;BME280;22678;52.052;4.242;2023-05-24T08:21:00;102599.38;;;17.42;57.84
36692;BME280;22678;52.052;4.242;2023-05-24T08:23:26;102601.97;;;17.49;56.59
36692;BME280;22678;52.052;4.242;2023-05-24T08:25:54;102574.38;;;17.61;56.25
36692;BME280;22678;52.052;4.242;2023-05-24T08:28:20;102579.44;;;17.86;55.32
36692;BME280;22678;52.052;4.242;2023-05-24T08:30:45;102579.22;;;18.04;55.34
36692;BME280;22678;52.052;4.242;2023-05-24T08:33:10;102584.25;;;18.29;54.93
36692;BME280;22678;52.052;4.242;2023-05-24T08:35:35;102574.28;;;18.45;54.25
36692;BME280;22678;52.052;4.242;2023-05-24T08:38:01;102579.41;;;18.61;53.00
36692;BME280;22678;52.052;4.242;2023-05-24T08:40:26;102584.47;;;18.79;51.59
36692;BME280;22678;52.052;4.242;2023-05-24T08:42:52;102569.34;;;18.80;50.51
36692;BME280;22678;52.052;4.242;2023-05-24T08:45:20;102577.06;;;19.01;50.31
36692;BME280;22678;52.052;4.242;2023-05-24T08:47:46;102587.47;;;19.17;49.18
36692;BME280;22678;52.052;4.242;2023-05-24T08:50:12;102578.47;;;19.22;49.61
36692;BME280;22678;52.052;4.242;2023-05-24T08:52:37;102590.56;;;19.45;49.98
36692;BME280;22678;52.052;4.242;2023-05-24T08:55:04;102589.59;;;19.48;48.73
36692;BME280;22678;52.052;4.242;2023-05-24T08:57:33;102588.72;;;19.47;48.71
36692;BME280;22678;52.052;4.242;2023-05-24T09:00:04;102582.28;;;19.59;48.28
36692;BME280;22678;52.052;4.242;2023-05-24T09:02:30;102576.78;;;19.68;47.31
36692;BME280;22678;52.052;4.242;2023-05-24T09:04:57;102591.56;;;19.89;47.15
36692;BME280;22678;52.052;4.242;2023-05-24T09:07:23;102583.50;;;19.91;46.77
36692;BME280;22678;52.052;4.242;2023-05-24T09:09:56;102599.16;;;20.09;46.70
36692;BME280;22678;52.052;4.242;2023-05-24T09:12:23;102594.44;;;20.22;46.50
36692;BME280;22678;52.052;4.242;2023-05-24T09:14:50;102599.41;;;20.41;46.57
36692;BME280;22678;52.052;4.242;2023-05-24T09:17:16;102598.97;;;20.59;46.00
36692;BME280;22678;52.052;4.242;2023-05-24T09:19:44;102586.53;;;20.60;44.26
36692;BME280;22678;52.052;4.242;2023-05-24T09:22:12;102590.91;;;20.62;44.72
36692;BME280;22678;52.052;4.242;2023-05-24T09:24:42;102595.13;;;20.74;45.07
36692;BME280;22678;52.052;4.242;2023-05-24T09:27:07;102584.16;;;20.87;45.48
36692;BME280;22678;52.052;4.242;2023-05-24T09:29:36;102580.34;;;20.97;44.29
36692;BME280;22678;52.052;4.242;2023-05-24T09:32:02;102548.56;;;20.83;44.21
36692;BME280;22678;52.052;4.242;2023-05-24T09:34:37;102590.75;;;21.08;43.33
36692;BME280;22678;52.052;4.242;2023-05-24T09:37:02;102582.78;;;21.06;43.44
36692;BME280;22678;52.052;4.242;2023-05-24T09:39:28;102588.75;;;21.17;43.22
36692;BME280;22678;52.052;4.242;2023-05-24T09:41:53;102577.19;;;21.15;43.49
36692;BME280;22678;52.052;4.242;2023-05-24T09:44:25;102584.63;;;21.39;43.50
36692;BME280;22678;52.052;4.242;2023-05-24T09:46:52;102578.13;;;21.50;43.20
36692;BME280;22678;52.052;4.242;2023-05-24T09:49:20;102567.16;;;21.60;42.22
36692;BME280;22678;52.052;4.242;2023-05-24T09:51:45;102576.69;;;21.70;41.99
36692;BME280;22678;52.052;4.242;2023-05-24T09:54:11;102580.03;;;21.78;41.89
36692;BME280;22678;52.052;4.242;2023-05-24T09:56:38;102571.59;;;21.94;42.39
36692;BME280;22678;52.052;4.242;2023-05-24T09:59:07;102567.72;;;22.04;42.49
36692;BME280;22678;52.052;4.242;2023-05-24T10:01:33;102569.94;;;22.19;41.33
36692;BME280;22678;52.052;4.242;2023-05-24T10:04:00;102569.13;;;22.17;41.31
36692;BME280;22678;52.052;4.242;2023-05-24T10:06:27;102566.97;;;22.29;40.78
36692;BME280;22678;52.052;4.242;2023-05-24T10:08:54;102568.63;;;22.34;40.07
36692;BME280;22678;52.052;4.242;2023-05-24T10:11:21;102549.59;;;22.12;38.69
36692;BME280;22678;52.052;4.242;2023-05-24T10:13:47;102562.19;;;22.10;39.61
36692;BME280;22678;52.052;4.242;2023-05-24T10:16:16;102559.22;;;22.19;40.00
36692;BME280;22678;52.052;4.242;2023-05-24T10:18:41;102550.16;;;22.23;38.10
36692;BME280;22678;52.052;4.242;2023-05-24T10:21:07;102554.63;;;22.25;38.58
36692;BME280;22678;52.052;4.242;2023-05-24T10:23:36;102554.53;;;22.28;38.82
36692;BME280;22678;52.052;4.242;2023-05-24T10:26:09;102551.50;;;22.40;39.23
36692;BME280;22678;52.052;4.242;2023-05-24T10:28:44;102564.03;;;22.68;39.02
36692;BME280;22678;52.052;4.242;2023-05-24T10:31:27;102560.03;;;22.81;37.91
36692;BME280;22678;52.052;4.242;2023-05-24T10:33:55;102562.50;;;22.87;36.43
36692;BME280;22678;52.052;4.242;2023-05-24T10:36:22;102563.25;;;22.92;36.49
36692;BME280;22678;52.052;4.242;2023-05-24T10:38:50;102561.25;;;22.98;36.81
36692;BME280;22678;52.052;4.242;2023-05-24T10:41:16;102569.72;;;23.14;37.28
36692;BME280;22678;52.052;4.242;2023-05-24T10:43:45;102578.13;;;23.30;37.29
36692;BME280;22678;52.052;4.242;2023-05-24T10:46:14;102556.53;;;23.33;36.86
36692;BME280;22678;52.052;4.242;2023-05-24T10:48:40;102568.81;;;23.40;36.09
36692;BME280;22678;52.052;4.242;2023-05-24T10:51:28;102574.34;;;23.35;36.36
36692;BME280;22678;52.052;4.242;2023-05-24T10:53:56;102568.94;;;23.37;36.56
36692;BME280;22678;52.052;4.242;2023-05-24T10:56:21;102568.66;;;23.44;36.75
36692;BME280;22678;52.052;4.242;2023-05-24T11:01:29;102573.22;;;23.68;36.65
36692;BME280;22678;52.052;4.242;2023-05-24T11:04:15;102571.16;;;23.74;35.92
36692;BME280;22678;52.052;4.242;2023-05-24T11:07:02;102569.25;;;23.78;35.61
36692;BME280;22678;52.052;4.242;2023-05-24T11:09:28;102571.84;;;23.81;35.43
36692;BME280;22678;52.052;4.242;2023-05-24T11:11:59;102575.28;;;23.85;35.86
36692;BME280;22678;52.052;4.242;2023-05-24T11:14:28;102573.41;;;23.88;35.58
36692;BME280;22678;52.052;4.242;2023-05-24T11:16:54;102572.13;;;23.99;35.52
36692;BME280;22678;52.052;4.242;2023-05-24T11:19:37;102571.88;;;24.05;35.44
36692;BME280;22678;52.052;4.242;2023-05-24T11:22:06;102580.63;;;24.10;35.42
36692;BME280;22678;52.052;4.242;2023-05-24T11:24:32;102567.84;;;23.93;34.84
36692;BME280;22678;52.052;4.242;2023-05-24T11:26:58;102572.25;;;23.95;35.09
36692;BME280;22678;52.052;4.242;2023-05-24T11:29:24;102566.75;;;23.99;35.72
36692;BME280;22678;52.052;4.242;2023-05-24T11:31:50;102577.88;;;24.11;35.72
36692;BME280;22678;52.052;4.242;2023-05-24T11:34:16;102580.44;;;24.16;35.74
36692;BME280;22678;52.052;4.242;2023-05-24T11:36:42;102572.94;;;24.24;35.89
36692;BME280;22678;52.052;4.242;2023-05-24T11:39:08;102576.69;;;24.42;35.59
36692;BME280;22678;52.052;4.242;2023-05-24T11:41:37;102574.72;;;24.47;35.62
36692;BME280;22678;52.052;4.242;2023-05-24T11:44:04;102531.50;;;24.30;35.52
36692;BME280;22678;52.052;4.242;2023-05-24T11:46:30;102567.94;;;24.61;35.39
36692;BME280;22678;52.052;4.242;2023-05-24T11:48:56;102568.34;;;24.74;35.53
36692;BME280;22678;52.052;4.242;2023-05-24T11:51:26;102576.94;;;24.82;35.13
36692;BME280;22678;52.052;4.242;2023-05-24T11:53:52;102575.75;;;24.89;34.98
36692;BME280;22678;52.052;4.242;2023-05-24T11:56:17;102569.59;;;24.87;35.01
36692;BME280;22678;52.052;4.242;2023-05-24T11:58:49;102572.00;;;24.93;34.90
36692;BME280;22678;52.052;4.242;2023-05-24T12:01:25;102567.34;;;24.98;34.19
36692;BME280;22678;52.052;4.242;2023-05-24T12:03:51;102569.91;;;25.01;34.46
36692;BME280;22678;52.052;4.242;2023-05-24T12:06:17;102564.50;;;25.01;34.33
36692;BME280;22678;52.052;4.242;2023-05-24T12:08:43;102558.22;;;25.01;33.61
36692;BME280;22678;52.052;4.242;2023-05-24T12:11:08;102562.56;;;25.05;34.13
36692;BME280;22678;52.052;4.242;2023-05-24T12:13:34;102567.72;;;25.10;33.76
36692;BME280;22678;52.052;4.242;2023-05-24T12:16:01;102549.97;;;25.06;33.92
36692;BME280;22678;52.052;4.242;2023-05-24T12:18:27;102543.78;;;25.04;33.82
36692;BME280;22678;52.052;4.242;2023-05-24T12:20:53;102542.72;;;25.08;32.79
36692;BME280;22678;52.052;4.242;2023-05-24T12:23:22;102558.47;;;25.17;33.20
36692;BME280;22678;52.052;4.242;2023-05-24T12:25:47;102532.41;;;25.17;33.35
36692;BME280;22678;52.052;4.242;2023-05-24T12:28:14;102555.38;;;25.26;32.74
36692;BME280;22678;52.052;4.242;2023-05-24T12:30:40;102544.44;;;25.31;33.33
36692;BME280;22678;52.052;4.242;2023-05-24T12:33:08;102545.41;;;25.28;33.05
36692;BME280;22678;52.052;4.242;2023-05-24T12:35:34;102550.56;;;25.34;33.18
36692;BME280;22678;52.052;4.242;2023-05-24T12:37:59;102550.44;;;25.38;33.57
36692;BME280;22678;52.052;4.242;2023-05-24T12:40:25;102550.97;;;25.46;33.51
36692;BME280;22678;52.052;4.242;2023-05-24T12:42:54;102552.38;;;25.55;33.74
36692;BME280;22678;52.052;4.242;2023-05-24T12:45:25;102562.75;;;25.64;33.93
36692;BME280;22678;52.052;4.242;2023-05-24T12:47:55;102557.94;;;25.70;34.12
36692;BME280;22678;52.052;4.242;2023-05-24T12:50:23;102556.13;;;25.71;34.28
36692;BME280;22678;52.052;4.242;2023-05-24T12:52:49;102555.16;;;25.72;34.07
36692;BME280;22678;52.052;4.242;2023-05-24T12:55:26;102541.19;;;25.64;34.12
36692;BME280;22678;52.052;4.242;2023-05-24T12:57:53;102543.59;;;25.70;34.05
36692;BME280;22678;52.052;4.242;2023-05-24T13:00:20;102545.44;;;25.69;33.60